Time;durP1;ratioP1;P1;durP2;ratioP2;P2;SDS_P1;SDS_P2;PMS_P1;PMS_P2;Temp;Humidity;BMP_temperature;BMP_pressure;BME280_temperature;BME280_humidity;BME280_pressure;Samples;Min_cycle;Max_cycle;Signal;HPM_P1;HPM_P2
2024/04/05 00:00:45;;;;;;;0.10;0.10;;;11.30;1.00;;;;;;5073558;28;20284;-89
2024/04/05 00:03:11;;;;;;;0.10;0.10;;;11.40;1.00;;;;;;5073994;28;20046;-85
2024/04/05 00:05:36;;;;;;;0.10;0.10;;;11.40;1.00;;;;;;5106140;28;20044;-86
2024/04/05 00:08:02;;;;;;;0.10;0.10;;;11.30;1.00;;;;;;5099511;28;20047;-88
2024/04/05 00:10:29;;;;;;;0.10;0.10;;;11.40;1.00;;;;;;5119618;28;20048;-90
2024/04/05 00:12:55;;;;;;;0.10;0.10;;;11.30;1.00;;;;;;5086862;28;20047;-88
2024/04/05 00:15:21;;;;;;;0.10;0.10;;;11.30;1.00;;;;;;5089371;28;20511;-88
2024/04/05 00:17:47;;;;;;;0.20;0.20;;;11.40;1.00;;;;;;5100495;27;20048;-89
2024/04/05 00:20:13;;;;;;;0.10;0.10;;;11.30;1.00;;;;;;5092702;28;20100;-86
2024/04/05 00:22:39;;;;;;;0.10;0.10;;;11.30;1.00;;;;;;5099389;28;20040;-87
2024/04/05 00:25:06;;;;;;;0.10;0.10;;;11.30;1.00;;;;;;5081388;28;20036;-88
2024/04/05 00:27:32;;;;;;;0.20;0.20;;;11.30;1.00;;;;;;5092332;28;20047;-89
2024/04/05 00:29:57;;;;;;;0.10;0.10;;;11.30;1.00;;;;;;5096881;28;20482;-89
2024/04/05 00:32:23;;;;;;;0.10;0.10;;;11.30;1.00;;;;;;5079763;28;20135;-88
2024/04/05 00:34:49;;;;;;;0.10;0.10;;;11.30;1.00;;;;;;5078048;28;20129;-87
2024/04/05 00:37:14;;;;;;;0.10;0.10;;;11.40;1.00;;;;;;5076054;28;20136;-87
2024/04/05 00:39:40;;;;;;;0.10;0.10;;;11.30;1.00;;;;;;5104810;28;20488;-88
2024/04/05 00:42:06;;;;;;;0.10;0.10;;;11.30;1.00;;;;;;5088569;28;20059;-87
2024/04/05 00:44:32;;;;;;;0.10;0.10;;;11.30;1.00;;;;;;5088662;28;20048;-89
2024/04/05 00:46:58;;;;;;;0.10;0.10;;;11.30;1.00;;;;;;5078083;28;20052;-89
2024/04/05 00:49:25;;;;;;;0.10;0.10;;;11.30;1.00;;;;;;5085178;28;20496;-85
2024/04/05 00:51:51;;;;;;;0.10;0.10;;;11.30;1.00;;;;;;5089345;28;20051;-88
2024/04/05 00:54:17;;;;;;;0.10;0.10;;;11.30;1.00;;;;;;5083828;28;20044;-87
2024/04/05 00:56:42;;;;;;;0.20;0.20;;;11.30;1.00;;;;;;5077907;28;20093;-88
2024/04/05 00:59:10;;;;;;;0.20;0.20;;;11.30;1.00;;;;;;5076079;28;20083;-87
2024/04/05 01:01:37;;;;;;;0.10;0.10;;;11.40;1.00;;;;;;5071640;28;20102;-88
2024/04/05 01:04:04;;;;;;;0.10;0.10;;;11.20;1.00;;;;;;5086717;28;20043;-87
2024/04/05 01:06:30;;;;;;;0.17;0.17;;;11.20;1.00;;;;;;5072584;28;20049;-88
2024/04/05 01:08:55;;;;;;;0.10;0.10;;;11.20;1.00;;;;;;5087351;28;20041;-88
2024/04/05 01:11:21;;;;;;;0.10;0.10;;;11.30;1.00;;;;;;5071519;28;20044;-88
2024/04/05 01:13:48;;;;;;;0.10;0.10;;;11.40;1.00;;;;;;5106227;27;20049;-88
2024/04/05 01:16:14;;;;;;;0.10;0.10;;;11.50;1.00;;;;;;5081598;28;20055;-88
2024/04/05 01:18:42;;;;;;;0.20;0.20;;;11.30;1.00;;;;;;5078311;28;20511;-87
2024/04/05 01:21:09;;;;;;;0.10;0.10;;;11.30;1.00;;;;;;5072643;28;20424;-88
2024/04/05 01:23:44;;;;;;;0.10;0.10;;;11.20;1.00;;;;;;5071508;28;20048;-88
2024/04/05 01:26:09;;;;;;;0.10;0.10;;;11.20;1.00;;;;;;5079533;28;20041;-89
2024/04/05 01:28:35;;;;;;;0.20;0.20;;;11.20;1.00;;;;;;5080175;28;20055;-87
2024/04/05 01:31:01;;;;;;;0.10;0.10;;;11.20;1.00;;;;;;5086464;28;20060;-90
2024/04/05 01:33:27;;;;;;;0.10;0.10;;;11.30;1.00;;;;;;5076762;28;20044;-87
2024/04/05 01:35:52;;;;;;;0.10;0.10;;;11.40;1.00;;;;;;5076041;28;20538;-88
2024/04/05 01:38:18;;;;;;;0.10;0.10;;;11.30;1.00;;;;;;5071673;28;20044;-88
2024/04/05 01:40:43;;;;;;;0.10;0.10;;;11.20;1.00;;;;;;5090461;28;20190;-89
2024/04/05 01:43:09;;;;;;;0.10;0.10;;;11.40;1.00;;;;;;5081881;28;20403;-89
2024/04/05 01:45:35;;;;;;;0.10;0.10;;;11.30;1.00;;;;;;5088557;28;20033;-87
2024/04/05 01:48:01;;;;;;;0.10;0.10;;;11.30;1.00;;;;;;5083990;28;20044;-87
2024/04/05 01:50:27;;;;;;;0.10;0.10;;;11.30;1.00;;;;;;5087195;28;20401;-88
2024/04/05 01:52:52;;;;;;;0.20;0.20;;;11.30;1.00;;;;;;5092588;28;20089;-87
2024/04/05 01:55:18;;;;;;;0.10;0.10;;;11.30;1.00;;;;;;5077840;28;20044;-87
2024/04/05 01:57:44;;;;;;;0.10;0.10;;;11.40;1.00;;;;;;5073536;28;20041;-86
2024/04/05 02:00:10;;;;;;;0.10;0.10;;;11.30;1.00;;;;;;5083277;28;20040;-87
2024/04/05 02:02:36;;;;;;;0.10;0.10;;;11.30;1.00;;;;;;5079917;28;20072;-88
2024/04/05 02:05:02;;;;;;;0.17;0.17;;;11.30;1.00;;;;;;5086030;28;20451;-89
2024/04/05 02:07:27;;;;;;;0.10;0.10;;;11.30;1.00;;;;;;5090819;28;20487;-87
2024/04/05 02:09:53;;;;;;;0.10;0.10;;;11.30;1.00;;;;;;5080965;28;20076;-87
2024/04/05 02:12:21;;;;;;;0.10;0.10;;;11.30;1.00;;;;;;5069432;28;20125;-88
2024/04/05 02:14:47;;;;;;;0.10;0.10;;;11.30;1.00;;;;;;5081490;28;20051;-87
2024/04/05 02:17:13;;;;;;;0.10;0.10;;;11.40;1.00;;;;;;5079078;28;20043;-90
2024/04/05 02:19:39;;;;;;;0.10;0.10;;;11.30;1.00;;;;;;5073960;28;20044;-88
2024/04/05 02:22:05;;;;;;;0.10;0.10;;;11.40;1.00;;;;;;5093164;28;20036;-87
2024/04/05 02:24:31;;;;;;;0.10;0.10;;;11.30;1.00;;;;;;5085274;28;20092;-87
2024/04/05 02:26:57;;;;;;;0.20;0.20;;;11.30;1.00;;;;;;5110508;28;20439;-89
2024/04/05 02:29:23;;;;;;;0.20;0.20;;;11.30;1.00;;;;;;5092270;28;20117;-89
2024/04/05 02:31:48;;;;;;;0.10;0.10;;;11.30;1.00;;;;;;5077209;28;20070;-90
2024/04/05 02:34:14;;;;;;;0.10;0.10;;;11.30;1.00;;;;;;5075320;28;20395;-89
2024/04/05 02:36:39;;;;;;;0.10;0.10;;;11.30;1.00;;;;;;5090606;28;20047;-88
2024/04/05 02:39:06;;;;;;;0.10;0.10;;;11.20;1.00;;;;;;5087607;28;20025;-89
2024/04/05 02:41:32;;;;;;;0.10;0.10;;;11.30;1.00;;;;;;5094102;28;20071;-89
2024/04/05 02:43:58;;;;;;;0.10;0.10;;;11.30;1.00;;;;;;5080602;28;20079;-91
2024/04/05 02:46:24;;;;;;;0.10;0.10;;;11.30;1.00;;;;;;5079026;28;20082;-90
2024/04/05 02:48:50;;;;;;;0.10;0.10;;;11.20;1.00;;;;;;5088028;28;20075;-89
2024/04/05 02:51:16;;;;;;;0.10;0.10;;;11.30;1.00;;;;;;5076842;28;20080;-91
2024/04/05 02:53:42;;;;;;;0.10;0.10;;;11.30;1.00;;;;;;5089629;28;20105;-89
2024/04/05 02:56:10;;;;;;;0.10;0.10;;;11.30;1.00;;;;;;5111316;28;20475;-88
2024/04/05 02:58:35;;;;;;;0.20;0.20;;;11.30;1.00;;;;;;5091015;28;20051;-90
2024/04/05 03:01:01;;;;;;;0.10;0.10;;;11.30;1.00;;;;;;5092164;28;20067;-90
2024/04/05 03:03:27;;;;;;;0.10;0.10;;;11.30;1.00;;;;;;5089284;28;20465;-88
2024/04/05 03:05:52;;;;;;;0.10;0.10;;;11.20;1.00;;;;;;5088375;28;20047;-90
2024/04/05 03:08:18;;;;;;;0.15;0.15;;;11.20;1.00;;;;;;5087895;28;20040;-91
2024/04/05 03:10:44;;;;;;;0.20;0.20;;;11.30;1.00;;;;;;5084706;28;20045;-89
2024/04/05 03:13:09;;;;;;;0.10;0.10;;;11.20;1.00;;;;;;5088206;28;20399;-91
2024/04/05 03:15:35;;;;;;;0.10;0.10;;;11.20;1.00;;;;;;5103448;28;20043;-89
2024/04/05 03:18:02;;;;;;;0.10;0.10;;;11.20;1.00;;;;;;5073715;28;20041;-89
2024/04/05 03:20:28;;;;;;;0.10;0.10;;;11.20;1.00;;;;;;5078219;28;20387;-89
2024/04/05 03:22:54;;;;;;;0.13;0.13;;;11.20;1.00;;;;;;5083507;28;20061;-90
2024/04/05 03:25:20;;;;;;;0.10;0.10;;;11.20;1.00;;;;;;5093192;28;20174;-89
2024/04/05 03:27:47;;;;;;;0.10;0.10;;;11.30;1.00;;;;;;5093285;28;20044;-89
2024/04/05 03:30:13;;;;;;;0.10;0.10;;;11.30;1.00;;;;;;5093656;28;20044;-89
2024/04/05 03:32:39;;;;;;;0.20;0.20;;;11.30;1.00;;;;;;5093814;28;20042;-89
2024/04/05 03:35:06;;;;;;;0.10;0.10;;;11.30;1.00;;;;;;5113842;27;20044;-89
2024/04/05 03:37:37;;;;;;;0.10;0.10;;;11.30;1.00;;;;;;5076706;28;20044;-89
2024/04/05 03:40:05;;;;;;;0.20;0.20;;;11.30;1.00;;;;;;5074557;28;20055;-89
2024/04/05 03:42:30;;;;;;;0.10;0.10;;;11.30;1.00;;;;;;5073206;28;20117;-86
2024/04/05 03:44:56;;;;;;;0.10;0.10;;;11.30;1.00;;;;;;5105926;28;20048;-90
2024/04/05 03:47:22;;;;;;;0.10;0.10;;;11.30;1.00;;;;;;5073998;28;20136;-92
2024/04/05 03:49:48;;;;;;;0.10;0.10;;;11.40;1.00;;;;;;5071997;28;20056;-89
2024/04/05 03:52:13;;;;;;;0.10;0.10;;;11.40;1.00;;;;;;5074621;28;20136;-90
2024/04/05 03:54:39;;;;;;;0.10;0.10;;;11.30;1.00;;;;;;5074400;28;20400;-87
2024/04/05 03:57:04;;;;;;;0.10;0.10;;;11.40;1.00;;;;;;5084049;28;20041;-87
2024/04/05 03:59:30;;;;;;;0.20;0.20;;;11.30;1.00;;;;;;5072578;28;20040;-88
2024/04/05 04:01:56;;;;;;;0.15;0.15;;;11.40;1.00;;;;;;5105348;27;20040;-88
2024/04/05 04:04:22;;;;;;;0.10;0.10;;;11.40;1.00;;;;;;5069414;28;20037;-90
2024/04/05 04:06:49;;;;;;;0.20;0.20;;;11.40;1.00;;;;;;5071909;28;20051;-87
2024/04/05 04:09:16;;;;;;;0.20;0.20;;;11.40;1.00;;;;;;5086009;28;20044;-89
2024/04/05 04:11:42;;;;;;;0.10;0.10;;;11.30;1.00;;;;;;5079624;28;20123;-90
2024/04/05 04:14:09;;;;;;;0.10;0.10;;;11.40;1.00;;;;;;5093162;28;20432;-87
2024/04/05 04:16:35;;;;;;;0.13;0.13;;;11.40;1.00;;;;;;5078935;28;20048;-90
2024/04/05 04:19:00;;;;;;;0.10;0.10;;;11.40;1.00;;;;;;5098149;28;20053;-88
2024/04/05 04:21:26;;;;;;;0.13;0.13;;;11.40;1.00;;;;;;5090284;28;20051;-88
2024/04/05 04:23:52;;;;;;;0.10;0.10;;;11.40;1.00;;;;;;5091227;28;20040;-87
2024/04/05 04:26:18;;;;;;;0.10;0.10;;;11.40;1.00;;;;;;5082416;28;20492;-88
2024/04/05 04:28:44;;;;;;;0.10;0.10;;;11.40;1.00;;;;;;5105236;28;20055;-86
2024/04/05 04:31:20;;;;;;;0.10;0.10;;;11.40;1.00;;;;;;5096214;28;20047;-89
2024/04/05 04:33:46;;;;;;;0.10;0.10;;;11.40;1.00;;;;;;5068773;28;20518;-89
2024/04/05 04:36:12;;;;;;;0.10;0.10;;;11.40;1.00;;;;;;5072283;28;20063;-88
2024/04/05 04:38:38;;;;;;;0.15;0.15;;;11.30;1.00;;;;;;5071224;28;20040;-88
2024/04/05 04:41:04;;;;;;;0.10;0.10;;;11.40;1.00;;;;;;5071720;28;20404;-89
2024/04/05 04:43:30;;;;;;;0.20;0.20;;;11.40;1.00;;;;;;5072838;28;20151;-87
2024/04/05 04:45:56;;;;;;;0.10;0.10;;;11.40;1.00;;;;;;5072673;28;20047;-89
2024/04/05 04:48:21;;;;;;;0.15;0.15;;;11.40;1.00;;;;;;5112363;27;20052;-88
2024/04/05 04:50:47;;;;;;;0.10;0.10;;;11.40;1.00;;;;;;5092151;28;20079;-88
2024/04/05 04:53:13;;;;;;;0.10;0.10;;;11.40;1.00;;;;;;5091364;28;20047;-88
2024/04/05 04:55:41;;;;;;;0.10;0.10;;;11.30;1.00;;;;;;5088965;28;20044;-86
2024/04/05 04:58:07;;;;;;;0.10;0.10;;;11.40;1.00;;;;;;5105526;28;20081;-89
2024/04/05 05:00:32;;;;;;;0.10;0.10;;;11.40;1.00;;;;;;5103898;28;20084;-88
2024/04/05 05:02:58;;;;;;;0.10;0.10;;;11.40;1.00;;;;;;5082999;28;20571;-88
2024/04/05 05:05:24;;;;;;;0.10;0.10;;;11.40;1.00;;;;;;5089362;28;20036;-90
2024/04/05 05:07:49;;;;;;;0.10;0.10;;;11.40;1.00;;;;;;5090695;28;20403;-87
2024/04/05 05:10:15;;;;;;;0.10;0.10;;;11.40;1.00;;;;;;5087813;28;20361;-88
2024/04/05 05:12:40;;;;;;;0.10;0.10;;;11.30;1.00;;;;;;5075363;28;20081;-89
2024/04/05 05:15:06;;;;;;;0.10;0.10;;;11.40;1.00;;;;;;5079276;28;20547;-83
2024/04/05 05:17:32;;;;;;;0.10;0.10;;;11.40;1.00;;;;;;5093803;28;20050;-88
2024/04/05 05:20:00;;;;;;;0.20;0.20;;;11.40;1.00;;;;;;5088820;28;20056;-87
2024/04/05 05:22:26;;;;;;;0.10;0.10;;;11.30;1.00;;;;;;5115607;27;20511;-89
2024/04/05 05:24:51;;;;;;;0.10;0.10;;;11.40;1.00;;;;;;5088631;28;20041;-89
2024/04/05 05:27:17;;;;;;;0.10;0.10;;;11.40;1.00;;;;;;5091565;28;20139;-87
2024/04/05 05:29:43;;;;;;;0.10;0.10;;;11.30;1.00;;;;;;5099680;28;20040;-89
2024/04/05 05:32:11;;;;;;;0.10;0.10;;;11.40;1.00;;;;;;5084824;28;20052;-86
2024/04/05 05:34:38;;;;;;;0.10;0.10;;;11.30;1.00;;;;;;5082829;28;20040;-90
2024/04/05 05:37:04;;;;;;;0.10;0.10;;;11.40;1.00;;;;;;5080179;28;20427;-83
2024/04/05 05:39:29;;;;;;;0.10;0.10;;;11.50;1.00;;;;;;5091709;28;20032;-88
2024/04/05 05:41:55;;;;;;;0.10;0.10;;;11.40;1.00;;;;;;5088420;28;20115;-88
2024/04/05 05:44:21;;;;;;;0.10;0.10;;;11.40;1.00;;;;;;5112356;27;20484;-86
2024/04/05 05:46:46;;;;;;;0.10;0.10;;;11.50;1.00;;;;;;5096102;28;20054;-87
2024/04/05 05:49:12;;;;;;;0.10;0.10;;;11.50;1.00;;;;;;5078507;28;20041;-85
2024/04/05 05:51:38;;;;;;;0.15;0.15;;;11.50;1.00;;;;;;5089684;28;20040;-89
2024/04/05 05:54:04;;;;;;;0.10;0.10;;;11.50;1.00;;;;;;5091467;28;20127;-90
2024/04/05 05:56:29;;;;;;;0.10;0.10;;;11.60;1.00;;;;;;5088876;28;20517;-87
2024/04/05 05:58:55;;;;;;;0.20;0.20;;;11.60;1.00;;;;;;5080695;28;20067;-85
2024/04/05 06:01:21;;;;;;;0.10;0.10;;;11.70;1.00;;;;;;5080409;28;20036;-85
2024/04/05 06:03:46;;;;;;;0.20;0.20;;;11.70;1.00;;;;;;5072764;28;20044;-86
2024/04/05 06:06:12;;;;;;;0.10;0.10;;;11.70;1.00;;;;;;5068705;28;20045;-85
2024/04/05 06:08:39;;;;;;;0.10;0.10;;;11.70;1.00;;;;;;5073497;28;20041;-85
2024/04/05 06:11:05;;;;;;;0.10;0.10;;;11.70;1.00;;;;;;5097542;27;20052;-85
2024/04/05 06:13:30;;;;;;;0.10;0.10;;;11.80;1.00;;;;;;5070434;28;20047;-85
2024/04/05 06:15:58;;;;;;;0.10;0.10;;;11.80;1.00;;;;;;5090777;28;20032;-86
2024/04/05 06:18:26;;;;;;;0.10;0.10;;;11.80;1.00;;;;;;5085595;28;20063;-86
2024/04/05 06:20:56;;;;;;;0.13;0.13;;;11.80;1.00;;;;;;5076526;28;20455;-86
2024/04/05 06:23:23;;;;;;;0.20;0.20;;;11.80;1.00;;;;;;5105440;27;20075;-87
2024/04/05 06:25:54;;;;;;;0.10;0.10;;;11.90;1.00;;;;;;5072509;28;20048;-87
2024/04/05 06:28:20;;;;;;;0.20;0.20;;;11.90;1.00;;;;;;5084367;28;20048;-85
2024/04/05 06:30:46;;;;;;;0.10;0.10;;;11.90;1.00;;;;;;5086279;28;20116;-86
2024/04/05 06:33:11;;;;;;;0.15;0.15;;;11.90;1.00;;;;;;5083972;28;20036;-85
2024/04/05 06:35:37;;;;;;;0.10;0.10;;;11.90;1.00;;;;;;5076752;28;20048;-86
2024/04/05 06:38:03;;;;;;;0.10;0.10;;;11.90;1.00;;;;;;5074848;28;20048;-86
2024/04/05 06:40:29;;;;;;;0.10;0.10;;;12.00;1.00;;;;;;5072134;28;20052;-87
2024/04/05 06:42:54;;;;;;;0.20;0.20;;;12.00;1.00;;;;;;5085665;28;20056;-86
2024/04/05 06:45:20;;;;;;;0.10;0.10;;;12.00;1.00;;;;;;5069610;28;20045;-87
2024/04/05 06:47:46;;;;;;;0.13;0.13;;;12.00;1.00;;;;;;5085254;28;20048;-85
2024/04/05 06:50:11;;;;;;;0.10;0.10;;;12.00;1.00;;;;;;5085499;28;20051;-86
2024/04/05 06:52:37;;;;;;;0.10;0.10;;;12.10;1.00;;;;;;5087559;28;20059;-87
2024/04/05 06:55:03;;;;;;;0.10;0.10;;;12.10;1.00;;;;;;5071440;28;20055;-86
2024/04/05 06:57:29;;;;;;;0.10;0.10;;;12.10;1.00;;;;;;5070869;28;20135;-87
2024/04/05 06:59:57;;;;;;;0.10;0.10;;;12.10;1.00;;;;;;5072488;28;20094;-85
2024/04/05 07:02:25;;;;;;;0.20;0.20;;;12.20;1.00;;;;;;5090535;28;20074;-86
2024/04/05 07:04:51;;;;;;;0.20;0.20;;;12.30;1.00;;;;;;5086949;28;20111;-84
2024/04/05 07:07:17;;;;;;;0.10;0.10;;;12.40;1.00;;;;;;5091655;28;20052;-86
2024/04/05 07:09:44;;;;;;;0.10;0.10;;;12.40;1.00;;;;;;5075953;28;20407;-85
2024/04/05 07:12:11;;;;;;;0.10;0.10;;;12.40;1.00;;;;;;5072704;28;20094;-85
2024/04/05 07:14:37;;;;;;;0.10;0.10;;;12.40;1.00;;;;;;5071938;28;20045;-87
2024/04/05 07:17:03;;;;;;;0.10;0.10;;;12.40;1.00;;;;;;5073314;28;20394;-85
2024/04/05 07:19:29;;;;;;;0.10;0.10;;;12.40;1.00;;;;;;5072177;28;20048;-85
2024/04/05 07:21:55;;;;;;;0.20;0.20;;;12.50;1.00;;;;;;5082157;28;20131;-85
2024/04/05 07:24:21;;;;;;;0.10;0.10;;;12.50;1.00;;;;;;5072906;28;20127;-85
2024/04/05 07:26:47;;;;;;;0.10;0.10;;;12.60;1.00;;;;;;5072256;28;20056;-85
2024/04/05 07:29:13;;;;;;;0.20;0.20;;;12.60;1.00;;;;;;5071946;28;20161;-86
2024/04/05 07:31:38;;;;;;;0.20;0.20;;;12.60;1.00;;;;;;5072637;28;20376;-88
2024/04/05 07:34:05;;;;;;;0.10;0.10;;;12.60;1.00;;;;;;5071497;28;20045;-88
2024/04/05 07:36:32;;;;;;;0.10;0.10;;;12.70;1.00;;;;;;5071880;28;20506;-84
2024/04/05 07:38:58;;;;;;;0.10;0.10;;;12.60;1.00;;;;;;5071838;28;20052;-86
2024/04/05 07:41:24;;;;;;;0.20;0.20;;;12.80;1.00;;;;;;5072602;28;20082;-86
2024/04/05 07:43:50;;;;;;;0.10;0.10;;;12.80;1.00;;;;;;5071218;28;20052;-85
2024/04/05 07:46:15;;;;;;;0.10;0.10;;;12.80;1.00;;;;;;5074245;28;20072;-85
2024/04/05 07:48:42;;;;;;;0.20;0.20;;;12.90;1.00;;;;;;5070607;28;20040;-85
2024/04/05 07:51:10;;;;;;;0.10;0.10;;;12.90;1.00;;;;;;5077192;28;20403;-86
2024/04/05 07:53:36;;;;;;;0.10;0.10;;;13.00;1.00;;;;;;5079359;28;20049;-87
2024/04/05 07:56:03;;;;;;;0.20;0.20;;;13.10;1.00;;;;;;5105568;28;20039;-86
2024/04/05 07:58:29;;;;;;;0.10;0.10;;;13.10;1.00;;;;;;5107022;28;20045;-88
2024/04/05 08:00:54;;;;;;;0.10;0.10;;;13.20;1.00;;;;;;5092283;28;20047;-87
2024/04/05 08:03:20;;;;;;;0.10;0.10;;;13.20;1.00;;;;;;5090488;28;20047;-87
2024/04/05 08:05:46;;;;;;;0.10;0.10;;;13.30;1.00;;;;;;5090676;28;20047;-87
2024/04/05 08:08:12;;;;;;;0.10;0.10;;;13.40;1.00;;;;;;5080282;28;20041;-86
2024/04/05 08:10:38;;;;;;;0.13;0.13;;;13.30;1.00;;;;;;5070813;28;20129;-86
2024/04/05 08:13:04;;;;;;;0.20;0.20;;;13.40;1.00;;;;;;5071579;28;20040;-87
2024/04/05 08:15:30;;;;;;;0.10;0.10;;;13.40;1.00;;;;;;5122986;27;20368;-88
2024/04/05 08:17:59;;;;;;;0.13;0.13;;;13.50;1.00;;;;;;5091384;28;20097;-87
2024/04/05 08:20:25;;;;;;;0.17;0.17;;;13.50;1.00;;;;;;5090524;28;20044;-88
2024/04/05 08:22:51;;;;;;;0.20;0.20;;;13.60;1.00;;;;;;5086950;28;20047;-89
2024/04/05 08:25:17;;;;;;;0.10;0.10;;;13.60;1.00;;;;;;5085287;28;20125;-85
2024/04/05 08:27:47;;;;;;;0.13;0.13;;;;;;;;;;5097270;28;20044;-89
2024/04/05 08:30:12;;;;;;;0.20;0.20;;;13.70;1.00;;;;;;5121252;27;20403;-86
2024/04/05 08:32:42;;;;;;;0.20;0.20;;;13.80;1.00;;;;;;5089822;28;20115;-88
2024/04/05 08:35:13;;;;;;;0.17;0.17;;;13.90;1.00;;;;;;5079228;28;20384;-88
2024/04/05 08:37:39;;;;;;;0.20;0.20;;;13.90;1.00;;;;;;5082213;28;20048;-85
2024/04/05 08:40:07;;;;;;;0.25;0.20;;;14.00;1.00;;;;;;5087665;28;20028;-86
2024/04/05 08:42:34;;;;;;;0.10;0.10;;;14.00;1.00;;;;;;5075930;28;20399;-87
2024/04/05 08:45:03;;;;;;;0.20;0.20;;;14.00;1.00;;;;;;5089864;28;20051;-89
2024/04/05 08:47:32;;;;;;;0.10;0.10;;;14.00;1.00;;;;;;5080203;28;20136;-87
2024/04/05 08:50:03;;;;;;;0.10;0.10;;;14.10;1.00;;;;;;5114844;28;20048;-86
2024/04/05 08:52:29;;;;;;;0.10;0.10;;;14.10;1.00;;;;;;5080326;28;20052;-86
2024/04/05 08:54:57;;;;;;;0.20;0.20;;;14.10;1.00;;;;;;5070188;28;20040;-88
2024/04/05 08:57:36;;;;;;;0.20;0.20;;;14.10;1.00;;;;;;5106043;28;20075;-86
2024/04/05 09:00:06;;;;;;;0.10;0.10;;;14.20;1.00;;;;;;5103602;28;20056;-86
2024/04/05 09:02:33;;;;;;;0.20;0.20;;;14.20;1.00;;;;;;5073126;28;20098;-87
2024/04/05 09:05:09;;;;;;;0.10;0.10;;;14.20;1.00;;;;;;5069323;28;20735;-85
2024/04/05 09:07:35;;;;;;;0.20;0.20;;;14.30;1.00;;;;;;5071663;28;20259;-90
2024/04/05 09:10:17;;;;;;;0.10;0.10;;;14.30;1.00;;;;;;5074304;28;20051;-87
2024/04/05 09:13:01;;;;;;;0.15;0.15;;;14.30;1.00;;;;;;5074875;28;20048;-87
2024/04/05 09:15:28;;;;;;;0.17;0.17;;;14.40;1.00;;;;;;5070577;28;20055;-90
2024/04/05 09:17:54;;;;;;;0.20;0.20;;;14.30;1.00;;;;;;5073740;28;20077;-87
2024/04/05 09:20:29;;;;;;;0.13;0.13;;;14.40;1.00;;;;;;5083626;28;20420;-88
2024/04/05 09:23:05;;;;;;;0.10;0.10;;;14.40;1.00;;;;;;5074718;28;20526;-88
2024/04/05 09:25:32;;;;;;;0.10;0.10;;;14.30;1.00;;;;;;5092908;28;20391;-87
2024/04/05 09:28:14;;;;;;;0.15;0.15;;;14.30;1.00;;;;;;5072872;28;20053;-86
2024/04/05 09:30:40;;;;;;;0.20;0.20;;;14.20;1.00;;;;;;5091368;28;20044;-84
2024/04/05 09:33:06;;;;;;;0.20;0.20;;;14.10;1.00;;;;;;5071238;28;20441;-87
2024/04/05 09:35:36;;;;;;;0.10;0.10;;;14.10;1.00;;;;;;5071099;28;20036;-84
2024/04/05 09:38:04;;;;;;;0.10;0.10;;;14.10;1.00;;;;;;5074635;28;20077;-83
2024/04/05 09:40:32;;;;;;;0.10;0.10;;;14.00;1.00;;;;;;5084962;28;20119;-87
2024/04/05 09:43:01;;;;;;;0.15;0.15;;;14.00;1.00;;;;;;5075103;28;20059;-86
2024/04/05 09:45:30;;;;;;;0.20;0.20;;;14.00;1.00;;;;;;5089342;28;20036;-86
2024/04/05 09:47:56;;;;;;;0.10;0.10;;;13.90;1.00;;;;;;5088238;28;20056;-86
2024/04/05 09:50:22;;;;;;;0.10;0.10;;;14.00;1.00;;;;;;5084147;28;20056;-85
2024/04/05 09:52:52;;;;;;;0.10;0.10;;;13.90;1.00;;;;;;5084453;28;20373;-83
2024/04/05 09:55:23;;;;;;;0.10;0.10;;;13.90;1.00;;;;;;5090582;28;20055;-83
2024/04/05 09:57:49;;;;;;;0.20;0.20;;;13.80;1.00;;;;;;5085992;28;20044;-85
2024/04/05 10:00:20;;;;;;;0.15;0.15;;;13.70;1.00;;;;;;5071744;28;20518;-85
2024/04/05 10:02:47;;;;;;;0.10;0.10;;;13.80;1.00;;;;;;5106097;27;20056;-87
2024/04/05 10:05:28;;;;;;;0.10;0.10;;;13.80;1.00;;;;;;5087856;28;20052;-87
2024/04/05 10:07:54;;;;;;;0.10;0.10;;;13.70;1.00;;;;;;5076111;28;20074;-85
2024/04/05 10:10:32;;;;;;;0.10;0.10;;;13.70;1.10;;;;;;5076377;28;20047;-85
2024/04/05 10:13:23;;;;;;;0.20;0.20;;;13.70;1.40;;;;;;5080406;28;20849;-84
2024/04/05 10:15:58;;;;;;;0.20;0.20;;;13.70;2.40;;;;;;5081837;28;20040;-84
2024/04/05 10:18:34;;;;;;;0.10;0.10;;;13.70;3.80;;;;;;5087715;28;20690;-85
2024/04/05 10:21:09;;;;;;;0.10;0.10;;;13.70;5.00;;;;;;5081559;28;20047;-84
2024/04/05 10:23:40;;;;;;;0.20;0.20;;;13.70;5.90;;;;;;5089038;28;20044;-87
2024/04/05 10:26:15;;;;;;;0.10;0.10;;;13.60;25.40;;;;;;5079204;28;20044;-84
2024/04/05 10:28:42;;;;;;;0.20;0.20;;;13.30;63.50;;;;;;5069251;28;20044;-88
2024/04/05 10:31:11;;;;;;;0.10;0.10;;;13.50;88.60;;;;;;5107615;27;20040;-86
2024/04/05 10:33:38;;;;;;;0.10;0.10;;;13.50;97.20;;;;;;5086856;28;20139;-85
2024/04/05 10:36:05;;;;;;;0.10;0.10;;;13.50;99.90;;;;;;5076027;28;20450;-88
2024/04/05 10:38:31;;;;;;;0.10;0.10;;;13.50;99.90;;;;;;5085385;28;20063;-89
2024/04/05 10:41:01;;;;;;;0.10;0.10;;;13.40;99.90;;;;;;5089943;28;20056;-88
2024/04/05 10:43:28;;;;;;;0.20;0.20;;;13.40;99.90;;;;;;5090116;28;20074;-85
2024/04/05 10:46:04;;;;;;;0.10;0.10;;;13.30;99.90;;;;;;5089324;28;20131;-86
2024/04/05 10:48:31;;;;;;;0.10;0.10;;;13.30;99.90;;;;;;5088921;28;20070;-84
2024/04/05 10:50:57;;;;;;;0.10;0.10;;;13.40;99.90;;;;;;5073672;28;20067;-89
2024/04/05 10:53:23;;;;;;;0.10;0.10;;;13.40;99.90;;;;;;5069005;28;20045;-85
2024/04/05 10:55:52;;;;;;;0.10;0.10;;;13.30;99.90;;;;;;5052705;28;20040;-90
2024/04/05 10:58:18;;;;;;;0.10;0.10;;;13.30;99.90;;;;;;5069360;28;20123;-86
2024/04/05 11:00:45;;;;;;;0.10;0.10;;;13.40;99.90;;;;;;5069633;28;20044;-84
2024/04/05 11:03:16;;;;;;;0.10;0.10;;;13.40;99.90;;;;;;5075141;28;20058;-87
2024/04/05 11:05:42;;;;;;;0.10;0.10;;;13.40;99.90;;;;;;5088260;28;20048;-86
2024/04/05 11:08:10;;;;;;;0.20;0.20;;;13.40;99.90;;;;;;5085464;28;20048;-85
2024/04/05 11:10:36;;;;;;;0.10;0.10;;;13.50;99.90;;;;;;5114101;28;20387;-86
2024/04/05 11:13:19;;;;;;;0.10;0.10;;;13.40;99.90;;;;;;5075292;28;20072;-83
2024/04/05 11:15:45;;;;;;;0.10;0.10;;;13.50;99.90;;;;;;5069019;28;20396;-83
2024/04/05 11:18:11;;;;;;;0.10;0.10;;;13.60;99.90;;;;;;5073352;28;20051;-83
2024/04/05 11:20:41;;;;;;;0.20;0.20;;;13.50;99.90;;;;;;5071169;28;20052;-83
2024/04/05 11:23:14;;;;;;;0.15;0.15;;;13.60;99.90;;;;;;5068795;28;20056;-82
2024/04/05 11:25:40;;;;;;;0.10;0.10;;;13.70;99.90;;;;;;5068709;28;20040;-83
2024/04/05 11:28:14;;;;;;;0.10;0.10;;;13.70;99.90;;;;;;5080771;28;20143;-87
2024/04/05 11:30:40;;;;;;;0.10;0.10;;;13.60;99.90;;;;;;5088628;28;20084;-86
2024/04/05 11:33:07;;;;;;;0.10;0.10;;;13.60;99.90;;;;;;5093779;28;20048;-83
2024/04/05 11:35:35;;;;;;;0.10;0.10;;;13.60;99.90;;;;;;5070493;28;20079;-83
2024/04/05 11:38:01;;;;;;;0.10;0.10;;;13.50;99.90;;;;;;5073306;28;20090;-87
2024/04/05 11:40:27;;;;;;;0.10;0.10;;;13.50;99.90;;;;;;5089705;28;20060;-88
2024/04/05 11:42:54;;;;;;;0.10;0.10;;;13.50;99.90;;;;;;5088863;28;20048;-88
2024/04/05 11:45:20;;;;;;;0.10;0.10;;;13.60;99.90;;;;;;5092981;28;20044;-88
2024/04/05 11:47:48;;;;;;;0.20;0.20;;;13.50;99.90;;;;;;5088751;28;20036;-86
2024/04/05 11:50:14;;;;;;;0.13;0.13;;;13.60;99.90;;;;;;5095170;27;20052;-84
2024/04/05 11:52:40;;;;;;;0.10;0.10;;;13.60;99.90;;;;;;5106507;27;20037;-84
2024/04/05 11:55:06;;;;;;;0.10;0.10;;;13.60;99.90;;;;;;5071464;28;20492;-81
2024/04/05 11:57:33;;;;;;;0.10;0.10;;;13.70;99.90;;;;;;5082418;28;20955;-85
2024/04/05 11:59:59;;;;;;;0.10;0.10;;;13.70;99.90;;;;;;5089045;28;20154;-91
2024/04/05 12:02:25;;;;;;;0.10;0.10;;;13.70;99.90;;;;;;5084291;28;20131;-85
2024/04/05 12:04:50;;;;;;;0.20;0.20;;;13.70;99.90;;;;;;5087475;28;20047;-83
2024/04/05 12:07:16;;;;;;;0.10;0.10;;;13.70;99.90;;;;;;5091055;28;20044;-83
2024/04/05 12:09:42;;;;;;;0.10;0.10;;;13.70;99.90;;;;;;5093334;28;20121;-80
2024/04/05 12:12:10;;;;;;;0.10;0.10;;;13.70;99.90;;;;;;5080313;28;20055;-80
2024/04/05 12:14:37;;;;;;;0.10;0.10;;;13.70;99.90;;;;;;5079730;28;20107;-80
2024/04/05 12:17:03;;;;;;;0.10;0.10;;;13.70;99.90;;;;;;5092230;28;20403;-79
2024/04/05 12:19:29;;;;;;;0.20;0.20;;;13.70;99.90;;;;;;5075996;28;20105;-81
2024/04/05 12:21:55;;;;;;;0.20;0.20;;;13.70;99.90;;;;;;5086200;28;20047;-87
2024/04/05 12:24:21;;;;;;;0.10;0.10;;;13.70;99.90;;;;;;5089815;28;20040;-85
2024/04/05 12:26:46;;;;;;;0.10;0.10;;;13.70;99.90;;;;;;5081699;28;20045;-81
2024/04/05 12:29:12;;;;;;;0.10;0.10;;;13.70;99.90;;;;;;5088302;28;20037;-85
2024/04/05 12:31:39;;;;;;;0.10;0.10;;;13.60;99.90;;;;;;5092208;28;20037;-84
2024/04/05 12:34:05;;;;;;;0.10;0.10;;;13.60;99.90;;;;;;5100461;27;20048;-91
2024/04/05 12:36:31;;;;;;;0.10;0.10;;;13.60;99.90;;;;;;5074591;28;20048;-85
2024/04/05 12:38:57;;;;;;;0.10;0.10;;;13.60;99.90;;;;;;5104834;28;20044;-88
2024/04/05 12:41:26;;;;;;;0.13;0.13;;;13.60;99.90;;;;;;5072725;28;20071;-86
2024/04/05 12:43:52;;;;;;;0.10;0.10;;;13.60;99.90;;;;;;5104698;28;20045;-86
2024/04/05 12:46:18;;;;;;;0.10;0.10;;;13.60;99.90;;;;;;5105301;28;20040;-89
2024/04/05 12:48:45;;;;;;;0.10;0.10;;;13.70;99.90;;;;;;5084597;28;20398;-87
2024/04/05 12:51:10;;;;;;;0.10;0.10;;;13.80;99.90;;;;;;5092054;28;20066;-80
2024/04/05 12:53:36;;;;;;;0.10;0.10;;;13.80;99.90;;;;;;5090081;28;20505;-81